Time;durP1;ratioP1;P1;durP2;ratioP2;P2;SDS_P1;SDS_P2;PMS_P1;PMS_P2;Temp;Humidity;BMP_temperature;BMP_pressure;BME280_temperature;BME280_humidity;BME280_pressure;Samples;Min_cycle;Max_cycle;Signal;HPM_P1;HPM_P2
2022/08/16 00:04:41;;;;;;;18.75;10.50;;;;;;;24.15;76.77;99797.67;4884446;60;1141287;-63
2022/08/16 00:09:48;;;;;;;14.95;10.50;;;;;;;24.09;76.82;99791.84;5061552;58;1141125;-65
2022/08/16 00:14:54;;;;;;;30.35;10.25;;;;;;;24.03;76.91;99787.32;5059244;58;1141264;-65
2022/08/16 00:20:00;;;;;;;22.10;9.90;;;;;;;24.01;76.78;99794.81;5059868;58;1141577;-63
2022/08/16 00:25:09;;;;;;;17.92;10.13;;;;;;;23.97;76.59;99793.11;5061568;58;1139611;-66
2022/08/16 00:30:17;;;;;;;16.45;9.55;;;;;;;23.96;76.92;99791.45;5128931;56;1141127;-63
2022/08/16 00:35:30;;;;;;;15.90;10.35;;;;;;;23.92;76.88;99790.77;5220193;56;1138990;-63
2022/08/16 00:40:43;;;;;;;17.52;9.35;;;;;;;23.88;77.33;99790.38;5211458;56;1141117;-66
2022/08/16 00:46:08;;;;;;;12.65;9.25;;;;;;;23.78;77.87;99785.50;5134341;57;1136971;-62
2022/08/16 00:51:18;;;;;;;16.60;10.18;;;;;;;23.68;78.17;99791.91;5129794;57;1137011;-63
2022/08/16 00:56:28;;;;;;;15.00;9.73;;;;;;;23.59;78.02;99799.17;5134101;57;1139100;-67
2022/08/16 01:01:34;;;;;;;21.12;10.15;;;;;;;23.58;78.24;99799.70;5178395;56;1136850;-66
2022/08/16 01:06:40;;;;;;;11.33;9.23;;;;;;;23.56;78.18;99801.79;5146983;56;1139049;-64
2022/08/16 01:11:49;;;;;;;14.85;9.13;;;;;;;23.57;78.22;99807.49;5161916;56;1136906;-66
2022/08/16 01:16:56;;;;;;;14.35;9.48;;;;;;;23.50;78.44;99802.66;5220310;56;1136970;-65
2022/08/16 01:22:27;;;;;;;12.23;9.08;;;;;;;23.42;79.44;99808.31;5162219;56;1136908;-64
2022/08/16 01:27:37;;;;;;;17.12;9.75;;;;;;;23.32;79.67;99810.16;5155473;56;1138930;-65
2022/08/16 01:32:44;;;;;;;13.90;9.53;;;;;;;23.31;79.51;99809.86;5156529;56;1138926;-65
2022/08/16 01:37:55;;;;;;;10.23;9.23;;;;;;;23.34;79.53;99795.10;5000494;58;1139014;-63
2022/08/16 01:43:03;;;;;;;16.90;9.68;;;;;;;23.34;79.36;99791.88;4959243;58;1139068;-62
2022/08/16 01:48:09;;;;;;;13.68;9.78;;;;;;;23.37;79.50;99796.02;4995164;58;1139156;-65
2022/08/16 01:53:15;;;;;;;16.32;8.73;;;;;;;23.38;78.90;99799.82;5080321;57;1139057;-65
2022/08/16 01:58:29;;;;;;;13.48;9.58;;;;;;;23.41;78.79;99802.61;5070512;57;1139101;-64
2022/08/16 02:03:35;;;;;;;16.57;9.65;;;;;;;23.46;78.68;99806.31;5072433;57;1139070;-65
2022/08/16 02:08:41;;;;;;;21.40;10.18;;;;;;;23.44;78.35;99803.52;5069054;58;1139089;-62
2022/08/16 02:13:47;;;;;;;10.65;9.38;;;;;;;23.38;78.38;99803.05;5065660;58;1141291;-64
2022/08/16 02:18:54;;;;;;;13.88;9.88;;;;;;;23.25;78.78;99814.77;5075714;58;1139186;-65
2022/08/16 02:24:00;;;;;;;16.87;11.10;;;;;;;23.04;78.72;99806.52;5017889;58;1138909;-64
2022/08/16 02:29:06;;;;;;;19.45;9.98;;;;;;;23.03;79.33;99817.52;4994382;59;1141642;-64
2022/08/16 02:34:12;;;;;;;15.63;10.48;;;;;;;22.98;79.44;99810.59;5155141;57;1139271;-66
2022/08/16 02:39:19;;;;;;;11.10;9.90;;;;;;;22.91;80.47;99809.83;5223942;55;1141352;-65
2022/08/16 02:44:25;;;;;;;21.97;9.88;;;;;;;22.76;80.34;99800.64;5249956;55;1139228;-65
2022/08/16 02:49:31;;;;;;;15.15;10.70;;;;;;;22.81;80.43;99806.23;5232435;56;1139181;-65
2022/08/16 02:54:38;;;;;;;20.77;11.05;;;;;;;22.81;81.13;99798.14;5232386;56;1141426;-63
2022/08/16 02:59:44;;;;;;;14.20;10.05;;;;;;;22.72;80.88;99804.28;5221090;56;1141088;-64
2022/08/16 03:04:50;;;;;;;14.75;10.85;;;;;;;22.74;80.98;99802.20;5155113;57;1141412;-65
2022/08/16 03:09:58;;;;;;;16.65;10.60;;;;;;;22.75;80.73;99799.81;5155363;57;1141257;-64
2022/08/16 03:15:08;;;;;;;16.75;10.63;;;;;;;22.73;80.82;99815.89;5199445;56;1141276;-62
2022/08/16 03:20:16;;;;;;;12.53;10.53;;;;;;;22.71;80.90;99812.58;5116503;57;1141267;-64
2022/08/16 03:25:23;;;;;;;15.10;10.75;;;;;;;22.77;81.05;99808.52;5150680;57;1141478;-63
2022/08/16 03:30:36;;;;;;;14.60;10.50;;;;;;;22.59;79.80;99815.12;5238271;56;1141377;-62
2022/08/16 03:35:44;;;;;;;18.60;9.98;;;;;;;22.55;80.88;99823.84;5169293;56;1141627;-64
2022/08/16 03:40:52;;;;;;;14.80;10.85;;;;;;;22.45;81.15;99815.70;5187098;56;1139299;-63
2022/08/16 03:46:02;;;;;;;15.00;10.88;;;;;;;22.38;81.19;99820.28;5116299;57;1141424;-62
2022/08/16 03:51:12;;;;;;;13.18;11.08;;;;;;;22.42;81.91;99825.56;5127044;57;1141601;-63
2022/08/16 03:56:20;;;;;;;16.07;10.90;;;;;;;22.44;81.74;99830.22;5171885;56;1139372;-63
2022/08/16 04:01:27;;;;;;;17.62;10.48;;;;;;;22.44;82.08;99838.30;5187388;56;1139526;-62
2022/08/16 04:06:33;;;;;;;14.20;10.70;;;;;;;22.40;81.94;99848.36;5136772;57;1139159;-64
2022/08/16 04:11:39;;;;;;;14.13;11.60;;;;;;;22.33;82.10;99855.63;5154583;56;1139075;-62
2022/08/16 04:16:46;;;;;;;15.60;11.25;;;;;;;22.30;82.25;99865.50;5220457;56;1138992;-63
2022/08/16 04:21:54;;;;;;;17.30;10.15;;;;;;;22.23;82.82;99864.67;5211973;56;1139084;-61
2022/08/16 04:27:01;;;;;;;15.00;10.23;;;;;;;22.14;83.16;99864.59;5134419;57;1139054;-63
2022/08/16 04:32:08;;;;;;;23.18;10.80;;;;;;;22.14;83.51;99872.67;5130904;56;1138979;-64
2022/08/16 04:37:15;;;;;;;26.30;11.53;;;;;;;22.12;83.32;99880.13;5122098;57;1138995;-66
2022/08/16 04:42:23;;;;;;;13.98;10.50;;;;;;;22.19;83.91;99897.92;5231440;56;1139542;-63
2022/08/16 04:47:33;;;;;;;14.25;10.48;;;;;;;22.24;83.82;99893.27;5295938;55;1138901;-61
2022/08/16 04:52:38;;;;;;;15.80;10.25;;;;;;;22.14;84.25;99895.57;5295932;56;1139092;-62
2022/08/16 04:57:47;;;;;;;15.15;10.90;;;;;;;22.09;84.37;99895.67;5295871;55;1138956;-64
2022/08/16 05:02:55;;;;;;;14.68;11.18;;;;;;;22.21;85.15;99895.03;5227054;56;1138948;-65
2022/08/16 05:08:01;;;;;;;19.50;11.95;;;;;;;22.36;85.06;99910.44;5207518;56;1138994;-65
2022/08/16 05:13:09;;;;;;;21.55;11.88;;;;;;;22.45;85.07;99922.15;5259765;56;1136915;-64
2022/08/16 05:18:15;;;;;;;16.23;10.70;;;;;;;22.50;84.97;99924.71;5290320;55;1136862;-64
2022/08/16 05:23:23;;;;;;;20.92;10.13;;;;;;;22.51;84.86;99925.02;5206561;56;1141090;-65
2022/08/16 05:28:30;;;;;;;15.77;11.93;;;;;;;22.55;84.49;99927.61;5181430;56;1141094;-66
2022/08/16 05:33:37;;;;;;;13.45;11.08;;;;;;;22.55;84.40;99928.44;5207609;56;1141070;-63
2022/08/16 05:38:43;;;;;;;15.32;11.53;;;;;;;22.62;84.63;99927.06;5238562;56;1141146;-63
2022/08/16 05:43:51;;;;;;;20.62;10.43;;;;;;;22.74;84.36;99944.27;5232975;56;1141051;-62
2022/08/16 05:49:04;;;;;;;17.00;11.33;;;;;;;22.82;83.99;99945.91;5207665;56;1141339;-66
2022/08/16 05:54:13;;;;;;;12.78;11.28;;;;;;;22.77;83.46;99947.37;5291124;56;1141043;-68
2022/08/16 05:59:20;;;;;;;14.15;11.22;;;;;;;22.83;83.80;99941.66;5295550;56;1141039;-65
2022/08/16 06:04:26;;;;;;;18.85;10.15;;;;;;;22.89;83.87;99945.39;5295580;55;1141005;-75
2022/08/16 06:09:33;;;;;;;12.75;11.08;;;;;;;23.04;83.99;99942.73;5295439;56;1141224;-66
2022/08/16 06:14:39;;;;;;;12.30;11.08;;;;;;;23.22;84.02;99936.61;5287270;56;1141047;-67
2022/08/16 06:19:45;;;;;;;12.58;10.38;;;;;;;23.41;83.08;99934.85;5207029;56;1141072;-65
2022/08/16 06:24:52;;;;;;;11.10;9.10;;;;;;;23.37;82.54;99929.61;5207188;56;1141345;-64
2022/08/16 06:29:58;;;;;;;13.55;11.03;;;;;;;23.45;81.75;99929.34;5206912;56;1139034;-67
2022/08/16 06:35:05;;;;;;;15.13;11.48;;;;;;;23.57;81.93;99931.67;5207106;56;1141205;-65
2022/08/16 06:40:12;;;;;;;11.97;10.13;;;;;;;23.75;81.22;99933.63;5265332;55;1141452;-66
2022/08/16 06:45:22;;;;;;;13.30;11.00;;;;;;;24.03;80.56;99943.48;5068060;57;1141069;-66
2022/08/16 06:50:31;;;;;;;11.48;10.38;;;;;;;24.15;79.54;99940.88;4958350;58;1141191;-66
2022/08/16 06:55:39;;;;;;;16.27;10.45;;;;;;;24.30;79.12;99945.45;4936856;58;1141415;-64
2022/08/16 07:00:47;;;;;;;12.45;9.03;;;;;;;24.56;78.64;99941.69;5077864;57;1141093;-66
2022/08/16 07:05:55;;;;;;;17.05;10.68;;;;;;;24.85;77.97;99957.70;5067957;57;1139270;-67
2022/08/16 07:11:03;;;;;;;12.20;11.00;;;;;;;25.07;76.65;99957.55;5053508;57;1141087;-65
2022/08/16 07:16:15;;;;;;;15.83;9.75;;;;;;;25.15;75.26;99956.43;4999918;58;1141115;-65
2022/08/16 07:21:22;;;;;;;14.87;9.33;;;;;;;25.30;75.22;99959.56;5063974;58;1139208;-65
2022/08/16 07:26:29;;;;;;;17.12;10.13;;;;;;;25.43;74.67;99960.73;5063898;58;1138938;-64
2022/08/16 07:31:36;;;;;;;10.08;9.10;;;;;;;25.68;73.87;99959.25;5102205;57;1141086;-66
2022/08/16 07:36:44;;;;;;;15.50;9.08;;;;;;;25.90;73.31;99962.27;5113205;57;1139040;-67
2022/08/16 07:41:49;;;;;;;11.08;9.98;;;;;;;26.21;73.26;99959.78;5229663;56;1139222;-64
2022/08/16 07:46:57;;;;;;;9.08;8.18;;;;;;;26.48;71.05;99964.23;5137625;57;1138352;-64
2022/08/16 07:52:03;;;;;;;11.80;8.98;;;;;;;26.69;70.23;99969.07;5141854;57;1136944;-64
2022/08/16 07:57:10;;;;;;;12.10;8.13;;;;;;;26.85;69.59;99966.98;5202357;56;1137009;-65
2022/08/16 08:02:17;;;;;;;9.90;8.50;;;;;;;27.04;69.02;99974.45;5182610;56;1136857;-66
2022/08/16 08:07:23;;;;;;;15.45;9.43;;;;;;;27.14;67.43;99971.96;5154480;56;1134928;-63
2022/08/16 08:12:29;;;;;;;11.73;9.38;;;;;;;27.37;67.29;99964.79;5195646;56;1136781;-65
2022/08/16 08:17:38;;;;;;;11.88;9.23;;;;;;;27.52;65.30;99972.70;5242181;56;1136928;-67
2022/08/16 08:22:45;;;;;;;12.73;8.25;;;;;;;27.62;66.94;99975.66;5238666;56;1136896;-65
2022/08/16 08:27:52;;;;;;;10.88;8.55;;;;;;;27.94;66.26;99976.48;5206019;56;1136950;-63
2022/08/16 08:32:57;;;;;;;10.63;8.60;;;;;;;28.10;65.23;99979.75;5231719;56;1136884;-63
2022/08/16 08:38:07;;;;;;;9.58;8.78;;;;;;;28.38;64.42;99978.05;5219429;56;1136905;-64
2022/08/16 08:43:16;;;;;;;12.85;9.18;;;;;;;28.48;63.22;99980.38;5155249;57;1134783;-63
2022/08/16 08:48:24;;;;;;;9.15;8.25;;;;;;;28.59;60.84;99985.42;5155761;57;1136895;-63
2022/08/16 08:53:29;;;;;;;9.15;8.08;;;;;;;28.75;60.19;99983.73;5155704;57;1134709;-64
2022/08/16 08:58:36;;;;;;;9.35;8.45;;;;;;;28.95;60.40;99987.60;5155399;57;1135033;-64
2022/08/16 09:03:50;;;;;;;13.35;9.13;;;;;;;29.03;59.45;99993.95;5158766;56;1134917;-64
2022/08/16 09:08:57;;;;;;;14.80;8.40;;;;;;;29.07;59.74;99988.01;5241922;56;1134934;-67
2022/08/16 09:14:05;;;;;;;11.53;7.95;;;;;;;29.11;59.41;99991.34;5262232;56;21489;-66
2022/08/16 09:19:10;;;;;;;8.63;7.40;;;;;;;29.22;57.10;99996.38;5241912;56;1134791;-64
2022/08/16 09:24:18;;;;;;;9.27;8.27;;;;;;;29.22;56.88;99995.84;5237370;56;1137024;-63
2022/08/16 09:29:25;;;;;;;12.10;8.17;;;;;;;29.33;55.72;100001.68;5237469;56;1137127;-65
2022/08/16 09:34:32;;;;;;;9.10;7.08;;;;;;;29.39;56.04;99997.16;5237259;56;1141026;-64
2022/08/16 09:39:38;;;;;;;9.60;8.28;;;;;;;29.48;56.60;100002.45;5163536;56;1136962;-66
2022/08/16 09:44:45;;;;;;;13.08;8.40;;;;;;;29.54;56.06;100000.05;5121744;57;1138985;-67
2022/08/16 09:49:51;;;;;;;11.95;8.63;;;;;;;29.59;54.71;100001.48;5121690;57;1141070;-65
2022/08/16 09:54:57;;;;;;;8.50;7.58;;;;;;;29.45;55.53;99998.05;5121584;57;1141119;-64
2022/08/16 10:00:05;;;;;;;10.20;8.28;;;;;;;29.35;55.03;99995.98;5125003;56;1137192;-64
2022/08/16 10:05:13;;;;;;;10.63;8.33;;;;;;;29.21;55.26;100006.44;5122277;57;1138945;-64
2022/08/16 10:10:22;;;;;;;9.93;8.55;;;;;;;29.13;55.74;100001.99;5142085;56;1141152;-66
2022/08/16 10:15:28;;;;;;;9.00;7.92;;;;;;;29.13;55.53;100002.81;5291203;56;1138980;-66
2022/08/16 10:20:41;;;;;;;11.60;7.60;;;;;;;29.11;55.08;100005.50;5295590;56;1138981;-65
2022/08/16 10:25:47;;;;;;;12.87;7.60;;;;;;;28.99;54.25;100013.26;5295563;55;1141111;-66
2022/08/16 10:30:54;;;;;;;9.27;8.03;;;;;;;28.82;55.92;100020.64;5295392;56;1141381;-66
2022/08/16 10:36:01;;;;;;;12.03;8.30;;;;;;;28.86;56.28;100027.77;5248666;55;1139055;-66
2022/08/16 10:41:08;;;;;;;9.88;7.58;;;;;;;28.91;56.31;100012.31;5254130;55;1141037;-64
2022/08/16 10:46:16;;;;;;;12.68;8.93;;;;;;;28.96;56.72;100017.02;5241798;56;1139021;-67
2022/08/16 10:51:21;;;;;;;10.20;8.30;;;;;;;29.29;57.43;100008.73;5241681;56;1141126;-66
2022/08/16 10:56:27;;;;;;;9.23;8.30;;;;;;;29.76;56.64;100007.38;5241628;55;1141100;-65
2022/08/16 11:01:33;;;;;;;10.75;8.63;;;;;;;30.02;54.74;100002.47;5249034;55;1139077;-63
2022/08/16 11:06:38;;;;;;;9.38;8.30;;;;;;;30.32;53.29;100001.91;5241881;56;1141184;-64
2022/08/16 11:11:45;;;;;;;8.43;7.37;;;;;;;30.56;53.59;99990.91;5242489;56;1138958;-63
2022/08/16 11:16:51;;;;;;;7.55;6.85;;;;;;;30.77;49.76;99990.50;5143535;57;1136955;-66
2022/08/16 11:21:56;;;;;;;8.30;5.87;;;;;;;30.84;49.38;99994.37;5242585;56;1136963;-68
2022/08/16 11:27:05;;;;;;;9.50;7.70;;;;;;;30.96;48.79;99999.07;5242415;56;1136922;-65
2022/08/16 11:32:10;;;;;;;13.50;7.05;;;;;;;30.92;48.49;99996.59;5207821;56;1136953;-65
2022/08/16 11:37:16;;;;;;;6.72;6.12;;;;;;;30.88;49.02;100001.75;5196378;56;1139024;-66
2022/08/16 11:42:23;;;;;;;7.95;7.15;;;;;;;31.23;48.09;99997.58;5220335;56;1139064;-68
2022/08/16 11:47:29;;;;;;;6.25;5.75;;;;;;;31.29;47.10;99989.69;5220213;56;1137019;-63
2022/08/16 11:52:35;;;;;;;5.30;4.80;;;;;;;31.50;47.04;99982.35;5205166;56;1136954;-62
2022/08/16 11:57:41;;;;;;;8.88;5.95;;;;;;;31.72;45.75;99979.71;5134486;57;1136934;-61
2022/08/16 12:02:48;;;;;;;6.28;5.50;;;;;;;31.85;43.50;99981.64;5093874;57;1137071;-64
2022/08/16 12:07:55;;;;;;;5.60;5.20;;;;;;;32.04;42.10;99974.00;5080671;57;1137037;-64
2022/08/16 12:13:01;;;;;;;7.70;4.95;;;;;;;32.09;42.99;99964.95;5159774;56;1134852;-62
2022/08/16 12:18:08;;;;;;;10.35;5.50;;;;;;;32.10;43.22;99963.85;5182191;56;1135086;-64
2022/08/16 12:23:14;;;;;;;8.45;5.03;;;;;;;32.16;41.36;99967.70;5203979;56;1136998;-63
2022/08/16 12:28:20;;;;;;;10.95;5.22;;;;;;;32.25;41.86;99961.14;5220213;56;1135090;-65
2022/08/16 12:33:26;;;;;;;7.65;4.90;;;;;;;32.34;42.37;99969.63;5208960;56;1136909;-63
2022/08/16 12:38:31;;;;;;;5.35;4.70;;;;;;;32.45;41.83;99969.34;5146162;56;1134853;-63
2022/08/16 12:43:40;;;;;;;13.72;4.42;;;;;;;32.56;39.32;99968.75;5122398;57;1134831;-64
2022/08/16 12:48:59;;;;;;;4.22;3.92;;;;;;;32.69;38.79;99974.23;5122209;56;1136964;-62
2022/08/16 12:54:08;;;;;;;9.07;4.47;;;;;;;32.75;38.75;99971.22;5195815;56;1134852;-64
2022/08/16 12:59:14;;;;;;;4.47;4.17;;;;;;;32.87;39.34;99971.45;5215416;56;1134957;-63
2022/08/16 13:04:20;;;;;;;4.83;4.45;;;;;;;32.93;37.96;99962.94;5207741;56;1134831;-62
2022/08/16 13:09:28;;;;;;;5.37;4.42;;;;;;;32.93;38.48;99962.12;5213239;56;1134771;-63
2022/08/16 13:14:38;;;;;;;4.50;3.87;;;;;;;32.96;38.25;99962.94;5259168;56;1134716;-68
2022/08/16 13:19:44;;;;;;;4.80;4.40;;;;;;;33.07;36.60;99961.23;5058362;58;1132853;-66
2022/08/16 13:24:50;;;;;;;4.97;4.10;;;;;;;33.09;37.23;99959.04;5029892;57;1132776;-66
2022/08/16 13:29:55;;;;;;;3.50;3.30;;;;;;;33.27;35.34;99961.73;5084003;58;21106;-64
2022/08/16 13:35:01;;;;;;;4.03;3.67;;;;;;;33.31;34.92;99944.97;5111542;57;1141531;-65
2022/08/16 13:40:07;;;;;;;5.20;3.80;;;;;;;33.33;35.58;99946.05;5067916;58;1136841;-66
2022/08/16 13:45:15;;;;;;;4.20;3.90;;;;;;;33.56;36.08;99944.00;5207397;55;1136849;-62
2022/08/16 13:50:21;;;;;;;4.15;3.77;;;;;;;33.63;34.35;99943.67;5306919;55;1136892;-64
2022/08/16 13:55:28;;;;;;;5.05;4.08;;;;;;;33.78;33.69;99935.36;5330579;55;1136969;-67
2022/08/16 14:00:35;;;;;;;5.87;4.20;;;;;;;33.93;34.39;99936.61;5303456;55;1137015;-68
2022/08/16 14:05:41;;;;;;;5.05;3.98;;;;;;;34.12;36.16;99944.41;5206854;56;1136958;-63
2022/08/16 14:10:47;;;;;;;7.08;4.37;;;;;;;34.04;34.17;99935.98;5252406;55;1137187;-64
2022/08/16 14:15:53;;;;;;;3.67;3.45;;;;;;;33.88;34.29;99945.72;5331382;55;1136849;-63
2022/08/16 14:20:59;;;;;;;3.92;3.62;;;;;;;33.72;33.65;99941.42;5331239;55;1137202;-66
2022/08/16 14:26:05;;;;;;;4.47;4.17;;;;;;;33.80;33.18;99942.75;5317845;55;1136943;-62
2022/08/16 14:31:11;;;;;;;4.35;3.60;;;;;;;33.86;33.52;99942.44;5321557;55;1137458;-66
2022/08/16 14:36:16;;;;;;;4.45;4.05;;;;;;;33.97;33.53;99945.09;5327524;55;1137126;-66
2022/08/16 14:41:22;;;;;;;4.92;4.10;;;;;;;33.88;33.76;99947.09;5274723;55;1137188;-65
2022/08/16 14:46:28;;;;;;;4.87;3.92;;;;;;;33.59;33.82;99946.73;5164472;56;1136946;-64
2022/08/16 14:51:33;;;;;;;6.95;4.17;;;;;;;33.48;34.53;99950.08;5164482;56;1137041;-66
2022/08/16 14:56:39;;;;;;;7.00;4.37;;;;;;;33.60;34.30;99943.72;5150032;56;1136950;-68
2022/08/16 15:01:45;;;;;;;5.03;3.92;;;;;;;33.75;33.85;99938.67;5200191;55;1136849;-66
2022/08/16 15:06:51;;;;;;;3.75;3.52;;;;;;;33.78;33.68;99943.04;5247491;55;1137007;-67
2022/08/16 15:11:58;;;;;;;6.00;5.50;;;;;;;33.83;34.48;99951.79;5243206;55;1136920;-64
2022/08/16 15:17:04;;;;;;;5.90;5.05;;;;;;;33.84;37.46;99954.80;5221231;55;1136975;-67
2022/08/16 15:22:29;;;;;;;6.65;4.90;;;;;;;33.50;38.66;99956.09;5237296;55;1137095;-66
2022/08/16 15:27:40;;;;;;;11.25;5.60;;;;;;;33.12;39.55;99947.52;5218750;56;1136938;-64
2022/08/16 15:32:44;;;;;;;9.68;4.95;;;;;;;32.89;40.35;99950.89;5233741;55;1139420;-64
2022/08/16 15:37:51;;;;;;;8.55;5.65;;;;;;;32.77;40.86;99964.09;5249894;55;1136897;-62
2022/08/16 15:42:57;;;;;;;9.13;5.47;;;;;;;32.79;41.11;99966.83;5301938;55;1136985;-63
2022/08/16 15:48:04;;;;;;;9.15;4.95;;;;;;;32.73;41.16;99979.43;5321673;55;1136945;-65
2022/08/16 15:53:20;;;;;;;6.90;5.12;;;;;;;32.62;41.31;99988.20;5289370;55;1137002;-66
2022/08/16 15:58:27;;;;;;;7.47;5.75;;;;;;;32.48;41.48;99992.61;5321855;55;1137055;-64
2022/08/16 16:03:33;;;;;;;33.02;13.18;;;;;;;32.42;41.53;99998.63;5249958;55;1136949;-62
2022/08/16 16:08:39;;;;;;;35.85;13.35;;;;;;;32.39;41.86;99989.59;5242217;56;1141123;-64
2022/08/16 16:13:44;;;;;;;8.58;5.25;;;;;;;32.38;41.58;99988.52;5305716;55;1141028;-66
2022/08/16 16:18:50;;;;;;;11.03;4.72;;;;;;;32.39;41.65;99989.59;5331608;55;1137124;-66
2022/08/16 16:23:56;;;;;;;6.50;5.90;;;;;;;32.47;41.11;99987.68;5331113;55;1136894;-65
2022/08/16 16:29:03;;;;;;;7.62;5.50;;;;;;;32.43;40.20;99985.76;5283373;55;1134821;-62
2022/08/16 16:34:10;;;;;;;11.78;5.17;;;;;;;32.41;41.58;99986.03;5205419;56;1135122;-64
2022/08/16 16:39:16;;;;;;;10.03;6.00;;;;;;;32.24;42.66;99990.97;5269937;55;1137001;-66
2022/08/16 16:44:21;;;;;;;12.55;5.70;;;;;;;31.84;43.44;99999.95;5234558;55;1137029;-64
2022/08/16 16:49:27;;;;;;;10.70;7.60;;;;;;;31.69;43.79;100005.41;5209543;56;1137150;-62
2022/08/16 16:54:34;;;;;;;11.70;6.50;;;;;;;31.43;43.92;100015.42;5213228;56;1139227;-64
2022/08/16 16:59:40;;;;;;;13.18;6.00;;;;;;;31.10;44.74;100005.73;5214711;56;1139309;-63
2022/08/16 17:04:45;;;;;;;9.47;5.63;;;;;;;30.78;45.50;100012.63;5215054;56;1139075;-66
2022/08/16 17:09:51;;;;;;;26.45;5.90;;;;;;;30.57;46.15;100023.94;5233514;56;1136889;-66
2022/08/16 17:14:57;;;;;;;24.18;8.78;;;;;;;30.42;46.77;100027.89;5216368;56;1139188;-65
2022/08/16 17:20:04;;;;;;;11.50;5.53;;;;;;;30.30;47.29;100029.45;5245943;56;1139005;-64
2022/08/16 17:25:11;;;;;;;10.98;5.47;;;;;;;30.11;47.87;100030.08;5266856;56;1139164;-65
2022/08/16 17:30:22;;;;;;;8.88;5.67;;;;;;;30.00;48.32;100034.09;5292360;56;1138927;-67
2022/08/16 17:35:39;;;;;;;21.30;5.93;;;;;;;29.92;48.54;100039.17;5179128;56;1137142;-66
2022/08/16 17:40:52;;;;;;;10.03;6.10;;;;;;;29.79;48.73;100046.40;5192107;56;1136976;-64
2022/08/16 17:46:00;;;;;;;15.57;6.93;;;;;;;29.69;49.08;100049.28;5234001;55;1141295;-65
2022/08/16 17:51:07;;;;;;;18.80;7.17;;;;;;;29.59;49.24;100051.91;5246111;55;1141264;-62
2022/08/16 17:56:15;;;;;;;17.80;5.72;;;;;;;29.51;49.47;100057.78;5155580;57;1141161;-66
2022/08/16 18:01:25;;;;;;;22.82;6.20;;;;;;;29.46;49.61;100064.55;5189880;56;1140494;-63
2022/08/16 18:06:30;;;;;;;15.07;6.70;;;;;;;29.40;49.81;100068.28;5203125;55;1141110;-65
2022/08/16 18:11:39;;;;;;;13.90;6.62;;;;;;;29.32;49.94;100070.89;5262167;55;1141185;-62
2022/08/16 18:16:47;;;;;;;9.28;5.30;;;;;;;29.23;50.19;100079.20;5226080;55;1141177;-63
2022/08/16 18:27:21;;;;;;;14.87;7.45;;;;;;;29.09;50.41;100087.98;5237433;56;1140988;-63
2022/08/16 18:32:27;;;;;;;10.95;5.90;;;;;;;29.03;50.42;100094.70;5217125;56;1141228;-65
2022/08/16 18:37:33;;;;;;;12.88;5.85;;;;;;;29.05;50.62;100096.65;5208028;56;1141027;-63
2022/08/16 18:42:39;;;;;;;25.00;7.53;;;;;;;28.99;50.71;100107.73;5232882;56;1141088;-65
2022/08/16 18:47:45;;;;;;;31.25;10.85;;;;;;;28.90;51.20;100105.13;5212044;56;1141051;-66
2022/08/16 18:52:55;;;;;;;19.25;8.88;;;;;;;28.75;52.05;100104.33;5212034;56;1143242;-65
2022/08/16 18:58:03;;;;;;;29.33;10.80;;;;;;;28.59;52.68;100108.70;5219498;56;1141055;-64
2022/08/16 19:03:19;;;;;;;19.02;9.43;;;;;;;28.59;52.68;100108.70;5161356;56;1143447;-64
2022/08/16 19:08:25;;;;;;;46.65;13.38;;;;;;;28.56;53.03;100111.11;5146404;57;1141057;-64
2022/08/16 19:13:32;;;;;;;42.85;11.12;;;;;;;28.50;52.96;100112.08;5146342;57;1143143;-62
2022/08/16 19:18:37;;;;;;;26.25;7.95;;;;;;;28.45;53.12;100113.34;5146297;57;1143111;-63
2022/08/16 19:23:44;;;;;;;45.00;9.25;;;;;;;28.24;52.96;100110.82;5146709;57;1141047;-67
2022/08/16 19:28:50;;;;;;;33.45;9.10;;;;;;;27.97;53.79;100110.53;5146542;57;1141155;-64
2022/08/16 19:33:57;;;;;;;34.33;9.05;;;;;;;27.95;54.84;100116.24;5140321;57;1141110;-63
2022/08/16 19:39:08;;;;;;;7.80;6.45;;;;;;;27.71;54.59;100117.91;5156380;56;1141122;-65
2022/08/16 19:44:14;;;;;;;10.50;6.75;;;;;;;27.47;54.89;100115.76;5194131;56;1139312;-62
2022/08/16 19:49:19;;;;;;;20.20;11.63;;;;;;;27.35;55.40;100114.39;5193063;56;1141073;-66
2022/08/16 19:54:25;;;;;;;20.85;11.70;;;;;;;27.34;55.61;100113.30;5224222;56;1143259;-63
2022/08/16 19:59:31;;;;;;;18.90;13.48;;;;;;;27.41;55.86;100118.89;5194127;56;1143556;-62
2022/08/16 20:04:37;;;;;;;29.50;19.65;;;;;;;27.44;55.84;100125.20;5300973;55;1141130;-65
2022/08/16 20:09:43;;;;;;;23.12;14.38;;;;;;;27.42;55.93;100130.58;5331770;55;1141082;-64
2022/08/16 20:14:50;;;;;;;28.70;11.48;;;;;;;27.29;56.02;100127.05;5185122;55;1141049;-66
2022/08/16 20:19:56;;;;;;;27.90;10.05;;;;;;;27.25;56.25;100135.91;5165287;56;1141268;-64
2022/08/16 20:25:05;;;;;;;30.00;10.08;;;;;;;27.17;56.52;100139.00;5305479;55;1141083;-63
2022/08/16 20:30:13;;;;;;;20.48;9.88;;;;;;;27.13;56.84;100139.99;5331764;55;1141089;-62
2022/08/16 20:35:23;;;;;;;38.83;14.78;;;;;;;27.01;57.01;100147.31;5143525;57;1139015;-65
2022/08/16 20:40:29;;;;;;;25.88;11.10;;;;;;;26.66;57.37;100149.11;5267108;55;1141081;-69
2022/08/16 20:45:36;;;;;;;14.47;8.45;;;;;;;26.41;58.33;100150.13;5234288;56;1141038;-66
2022/08/16 20:50:42;;;;;;;9.70;7.15;;;;;;;26.39;58.99;100154.12;5134588;56;1139135;-61
2022/08/16 20:55:48;;;;;;;7.87;7.12;;;;;;;26.44;59.48;100159.66;5122373;57;1136941;-61
2022/08/16 21:00:54;;;;;;;10.08;8.05;;;;;;;26.37;59.11;100158.42;5154839;56;1137097;-61
2022/08/16 21:06:04;;;;;;;9.55;7.80;;;;;;;26.21;59.69;100151.73;5287731;55;1139040;-63
2022/08/16 21:11:09;;;;;;;9.73;7.50;;;;;;;26.00;60.16;100160.34;5296040;56;1136792;-62
2022/08/16 21:16:15;;;;;;;12.13;8.73;;;;;;;25.91;60.87;100161.20;5259892;55;1136898;-67
2022/08/16 21:21:21;;;;;;;11.25;9.18;;;;;;;25.99;61.12;100153.80;5215629;56;1139175;-65
2022/08/16 21:26:27;;;;;;;10.65;8.70;;;;;;;26.01;61.23;100155.75;5296084;56;1137040;-65
2022/08/16 21:31:33;;;;;;;10.95;8.63;;;;;;;25.69;60.84;100157.81;5276699;56;1197428;-63
2022/08/16 21:36:39;;;;;;;15.20;10.98;;;;;;;25.55;61.80;100157.11;5247589;56;1141048;-66
2022/08/16 21:41:46;;;;;;;15.97;11.63;;;;;;;25.30;62.29;100171.23;5151219;56;1143103;-65
2022/08/16 21:46:52;;;;;;;18.23;12.88;;;;;;;24.85;63.38;100184.41;5206297;55;1143114;-66
2022/08/16 21:51:57;;;;;;;19.37;11.63;;;;;;;24.59;65.23;100199.48;5274970;55;1152802;-62
2022/08/16 21:57:04;;;;;;;12.82;9.75;;;;;;;24.36;66.32;100203.24;5269313;55;1143052;-62
2022/08/16 22:02:09;;;;;;;15.15;9.30;;;;;;;24.42;66.51;100209.15;5289093;55;1141036;-65
2022/08/16 22:07:17;;;;;;;25.33;11.10;;;;;;;24.51;66.60;100214.07;5302694;55;1141071;-63
2022/08/16 22:12:26;;;;;;;18.35;11.83;;;;;;;24.56;66.58;100208.55;5287966;55;1143162;-65
2022/08/16 22:17:32;;;;;;;18.52;12.05;;;;;;;24.56;67.05;100214.78;5232687;56;1143281;-65
2022/08/16 22:22:37;;;;;;;22.75;11.83;;;;;;;24.53;67.18;100205.22;5299919;55;1143112;-63
2022/08/16 22:27:43;;;;;;;18.80;12.10;;;;;;;24.38;67.48;100210.09;5287973;55;1143401;-62
2022/08/16 22:32:49;;;;;;;13.85;11.50;;;;;;;24.22;67.85;100197.05;5320439;55;1142477;-64
2022/08/16 22:37:54;;;;;;;16.95;13.38;;;;;;;24.13;68.27;100207.29;5303597;55;1143213;-63
2022/08/16 22:43:00;;;;;;;18.42;12.20;;;;;;;24.16;69.30;100202.78;5232505;56;1143155;-63
2022/08/16 22:48:06;;;;;;;18.67;12.30;;;;;;;24.34;69.63;100206.16;5232529;56;1143182;-64
2022/08/16 22:53:13;;;;;;;19.02;13.10;;;;;;;24.36;69.11;100205.94;5201564;56;1143175;-61
2022/08/16 22:58:19;;;;;;;19.40;13.00;;;;;;;24.27;69.67;100207.25;5232704;56;1143134;-65
2022/08/16 23:03:25;;;;;;;21.87;15.20;;;;;;;24.15;69.86;100206.52;5310937;55;1143144;-62
2022/08/16 23:08:35;;;;;;;14.78;13.08;;;;;;;24.14;70.68;100208.09;5289887;55;1143474;-62
2022/08/16 23:13:42;;;;;;;19.30;13.53;;;;;;;24.13;70.85;100203.76;5294279;55;1143093;-64
2022/08/16 23:18:49;;;;;;;17.27;14.63;;;;;;;23.98;71.70;100209.43;5321521;55;1143238;-65